createdAt,value
2022-08-29T00:00:21.114Z,44.11
2022-08-29T00:02:49.542Z,44.13
2022-08-29T00:05:17.685Z,43.34
2022-08-29T00:07:44.239Z,43.36
2022-08-29T00:10:11.694Z,43.63
2022-08-29T00:12:38.421Z,43.46
2022-08-29T00:15:06.878Z,44.05
2022-08-29T00:17:33.521Z,44.16
2022-08-29T00:20:00.232Z,44.61
2022-08-29T00:22:26.897Z,45.38
2022-08-29T00:24:53.421Z,45.26
2022-08-29T00:27:19.943Z,45.56
2022-08-29T00:29:46.486Z,45.94
2022-08-29T00:32:13.195Z,45.59
2022-08-29T00:34:39.741Z,46.39
2022-08-29T00:37:06.288Z,46.07
2022-08-29T00:39:33.063Z,46.25
2022-08-29T00:42:01.415Z,46.66
2022-08-29T00:44:28.628Z,45.75
2022-08-29T00:46:57.593Z,45.78
2022-08-29T00:49:24.316Z,45.42
2022-08-29T00:51:51.843Z,45.25
2022-08-29T00:54:18.553Z,46.06
2022-08-29T00:56:45.722Z,46.03
2022-08-29T00:59:17.105Z,45.69
2022-08-29T01:01:44.505Z,45.59
2022-08-29T01:04:15.819Z,45.23
2022-08-29T01:06:51.397Z,45.18
2022-08-29T01:09:18.055Z,45.00
2022-08-29T01:12:03.212Z,45.36
2022-08-29T01:14:29.806Z,45.34
2022-08-29T01:16:57.871Z,45.53
2022-08-29T01:19:24.391Z,45.60
2022-08-29T01:22:02.906Z,46.27
2022-08-29T01:24:36.234Z,45.68
2022-08-29T01:27:03.459Z,45.81
2022-08-29T01:29:30.062Z,46.05
2022-08-29T01:31:58.262Z,46.61
2022-08-29T01:34:27.684Z,47.01
2022-08-29T01:37:03.324Z,47.54
2022-08-29T01:39:33.917Z,46.89
2022-08-29T01:42:03.964Z,47.25
2022-08-29T01:44:30.818Z,47.20
2022-08-29T01:47:02.711Z,46.94
2022-08-29T01:49:31.270Z,47.55
2022-08-29T01:51:57.813Z,48.14
2022-08-29T01:54:24.583Z,47.53
2022-08-29T01:56:52.213Z,47.25
2022-08-29T01:59:21.733Z,46.93
2022-08-29T02:01:59.772Z,47.42
2022-08-29T02:04:27.335Z,46.99
2022-08-29T02:06:56.127Z,48.50
2022-08-29T02:09:23.547Z,47.61
2022-08-29T02:11:52.443Z,47.36
2022-08-29T02:14:19.908Z,48.03
2022-08-29T02:16:47.708Z,47.87
2022-08-29T02:19:14.791Z,48.16
2022-08-29T02:21:41.397Z,47.79
2022-08-29T02:24:24.551Z,47.48
2022-08-29T02:26:53.810Z,47.80
2022-08-29T02:29:20.363Z,49.00
2022-08-29T02:31:46.992Z,48.80
2022-08-29T02:34:13.715Z,48.96
2022-08-29T02:36:41.547Z,48.14
2022-08-29T02:39:09.479Z,48.14
2022-08-29T02:41:36.231Z,47.29
2022-08-29T02:44:03.692Z,47.37
2022-08-29T02:46:30.366Z,47.55
2022-08-29T02:49:00.571Z,47.47
2022-08-29T02:51:29.829Z,47.16
2022-08-29T02:53:56.874Z,48.00
2022-08-29T02:56:23.871Z,48.74
2022-08-29T02:58:50.706Z,48.22
2022-08-29T03:01:19.442Z,47.91
2022-08-29T03:03:45.989Z,48.58
2022-08-29T03:06:12.931Z,48.17
2022-08-29T03:08:39.567Z,48.11
2022-08-29T03:11:06.600Z,48.45
2022-08-29T03:13:34.473Z,47.94
2022-08-29T03:16:04.558Z,48.42
2022-08-29T03:18:31.440Z,47.77
2022-08-29T03:20:58.212Z,48.50
2022-08-29T03:23:24.748Z,50.28
2022-08-29T03:25:51.270Z,50.55
2022-08-29T03:28:18.189Z,49.95
2022-08-29T03:30:45.024Z,49.46
2022-08-29T03:33:12.198Z,48.98
2022-08-29T03:35:39.483Z,49.13
2022-08-29T03:38:06.396Z,48.59
2022-08-29T03:40:33.024Z,49.46
2022-08-29T03:43:00.485Z,49.04
2022-08-29T03:45:27.011Z,48.49
2022-08-29T03:47:53.578Z,50.61
2022-08-29T03:50:20.891Z,50.94
2022-08-29T03:52:48.658Z,49.96
2022-08-29T03:55:19.484Z,49.73
2022-08-29T03:57:46.309Z,49.51
2022-08-29T04:00:16.479Z,49.62
2022-08-29T04:02:47.463Z,49.18
2022-08-29T04:05:16.060Z,49.47
2022-08-29T04:07:57.838Z,49.09
2022-08-29T04:10:33.544Z,49.11
2022-08-29T04:13:00.999Z,49.24
2022-08-29T04:15:28.827Z,48.97
2022-08-29T04:17:57.696Z,49.23
2022-08-29T04:20:28.859Z,49.20
2022-08-29T04:22:56.588Z,48.73
2022-08-29T04:25:26.176Z,48.52
2022-08-29T04:27:54.089Z,49.46
2022-08-29T04:30:24.215Z,49.51
2022-08-29T04:32:50.831Z,50.02
2022-08-29T04:35:17.503Z,50.65
2022-08-29T04:37:44.701Z,50.19
2022-08-29T04:40:15.419Z,49.80
2022-08-29T04:42:42.935Z,49.90
2022-08-29T04:45:12.431Z,49.56
2022-08-29T04:47:39.819Z,49.20
2022-08-29T04:50:07.994Z,49.57
2022-08-29T04:52:34.612Z,49.80
2022-08-29T04:55:01.231Z,49.44
2022-08-29T04:57:27.791Z,49.10
2022-08-29T04:59:58.868Z,49.75
2022-08-29T05:02:27.600Z,49.36
2022-08-29T05:04:56.539Z,48.75
2022-08-29T05:07:25.497Z,48.46
2022-08-29T05:10:01.538Z,47.91
2022-08-29T05:12:30.128Z,47.40
2022-08-29T05:14:57.601Z,48.45
2022-08-29T05:17:24.625Z,48.40
2022-08-29T05:19:51.558Z,47.81
2022-08-29T05:22:19.881Z,47.33
2022-08-29T05:24:47.117Z,46.55
2022-08-29T05:27:17.080Z,46.64
2022-08-29T05:29:45.719Z,47.14
2022-08-29T05:32:14.856Z,48.21
2022-08-29T05:34:43.046Z,47.77
2022-08-29T05:37:15.141Z,48.93
2022-08-29T05:39:42.422Z,49.46
2022-08-29T05:42:10.336Z,48.10
2022-08-29T05:44:37.466Z,48.26
2022-08-29T05:47:05.969Z,47.71
2022-08-29T05:49:32.720Z,47.51
2022-08-29T05:52:00.705Z,46.49
2022-08-29T05:54:29.462Z,46.61
2022-08-29T05:56:57.107Z,46.94
2022-08-29T05:59:24.001Z,46.50
2022-08-29T06:01:50.627Z,46.14
2022-08-29T06:04:17.369Z,45.62
2022-08-29T06:06:43.910Z,45.30
2022-08-29T06:09:11.654Z,44.85
2022-08-29T06:11:38.535Z,44.56
2022-08-29T06:14:05.720Z,44.61
2022-08-29T06:16:33.053Z,44.25
2022-08-29T06:19:00.260Z,44.85
2022-08-29T06:21:26.754Z,44.39
2022-08-29T06:23:54.645Z,44.32
2022-08-29T06:26:21.206Z,45.08
2022-08-29T06:28:48.284Z,44.91
2022-08-29T06:31:21.466Z,47.13
2022-08-29T06:33:51.536Z,47.13
2022-08-29T06:36:18.099Z,46.47
2022-08-29T06:38:44.713Z,46.14
2022-08-29T06:41:15.174Z,45.96
2022-08-29T06:43:41.974Z,46.56
2022-08-29T06:46:09.321Z,45.32
2022-08-29T06:48:35.925Z,44.83
2022-08-29T06:51:03.662Z,43.78
2022-08-29T06:53:30.272Z,44.12
2022-08-29T06:56:04.186Z,43.27
2022-08-29T06:58:32.388Z,43.38
2022-08-29T07:00:59.231Z,43.18
2022-08-29T07:03:25.819Z,41.89
2022-08-29T07:05:53.679Z,41.52
2022-08-29T07:08:20.979Z,40.80
2022-08-29T07:10:47.777Z,40.00
2022-08-29T07:13:14.539Z,39.25
2022-08-29T07:15:41.751Z,39.29
2022-08-29T07:18:10.099Z,40.05
2022-08-29T07:20:39.387Z,39.80
2022-08-29T07:23:06.830Z,39.50
2022-08-29T07:25:35.431Z,38.74
2022-08-29T07:28:02.240Z,39.92
2022-08-29T07:30:29.203Z,40.50
2022-08-29T07:32:56.053Z,39.71
2022-08-29T07:35:30.524Z,39.76
2022-08-29T07:38:00.999Z,40.62
2022-08-29T07:40:27.597Z,41.65
2022-08-29T07:42:54.351Z,42.36
2022-08-29T07:45:20.969Z,41.14
2022-08-29T07:47:47.596Z,42.69
2022-08-29T07:50:14.803Z,40.41
2022-08-29T07:52:41.438Z,42.40
2022-08-29T07:55:08.806Z,43.10
2022-08-29T07:57:39.590Z,41.16
2022-08-29T08:00:12.249Z,39.21
2022-08-29T08:02:39.236Z,38.64
2022-08-29T08:05:07.129Z,37.54
2022-08-29T08:07:35.015Z,36.29
2022-08-29T08:10:03.653Z,35.07
2022-08-29T08:12:30.222Z,34.00
2022-08-29T08:14:57.052Z,35.76
2022-08-29T08:17:24.089Z,34.53
2022-08-29T08:19:50.623Z,33.72
2022-08-29T08:22:17.117Z,33.37
2022-08-29T08:24:43.727Z,33.03
2022-08-29T08:27:10.514Z,32.14
2022-08-29T08:29:37.157Z,31.93
2022-08-29T08:32:04.550Z,31.61
2022-08-29T08:34:31.315Z,32.89
2022-08-29T08:36:58.343Z,32.25
2022-08-29T08:39:24.943Z,31.82
2022-08-29T08:42:04.284Z,33.37
2022-08-29T08:44:53.532Z,32.76
2022-08-29T08:47:37.226Z,31.66
2022-08-29T08:50:06.667Z,31.22
2022-08-29T08:52:40.785Z,31.25
2022-08-29T08:55:15.445Z,29.75
2022-08-29T08:57:50.392Z,29.51
2022-08-29T09:00:16.963Z,28.20
2022-08-29T09:02:54.504Z,28.18
2022-08-29T09:05:40.369Z,26.52
2022-08-29T09:08:13.052Z,25.83
2022-08-29T09:11:03.099Z,25.63
2022-08-29T09:13:38.541Z,24.66
2022-08-29T09:16:12.070Z,23.42
2022-08-29T09:18:42.261Z,22.74
2022-08-29T09:21:39.634Z,22.36
2022-08-29T09:24:06.142Z,22.43
2022-08-29T09:26:32.924Z,21.85
2022-08-29T09:28:59.440Z,21.08
2022-08-29T09:31:34.341Z,20.97
2022-08-29T09:34:08.137Z,18.40
2022-08-29T09:36:48.318Z,14.71
2022-08-29T09:39:17.945Z,14.21
2022-08-29T09:41:47.829Z,12.56
2022-08-29T09:44:27.095Z,12.47
2022-08-29T09:47:20.111Z,13.40
2022-08-29T09:50:05.438Z,15.15
2022-08-29T09:52:33.002Z,16.52
2022-08-29T09:55:18.585Z,17.50
2022-08-29T09:57:51.024Z,14.80
2022-08-29T10:00:19.655Z,12.99
2022-08-29T10:02:48.832Z,12.99
2022-08-29T10:05:35.486Z,11.92
2022-08-29T10:08:05.540Z,9.33
2022-08-29T10:10:36.087Z,7.71
2022-08-29T10:13:20.333Z,6.79
2022-08-29T10:16:02.052Z,5.86
2022-08-29T10:18:28.879Z,5.81
2022-08-29T10:21:10.760Z,5.09
2022-08-29T10:23:39.700Z,4.99
2022-08-29T10:26:20.642Z,5.69
2022-08-29T10:29:09.203Z,6.97
2022-08-29T10:31:39.402Z,5.76
2022-08-29T10:34:21.894Z,5.32
2022-08-29T10:36:56.237Z,5.85
2022-08-29T10:39:28.762Z,5.38
2022-08-29T10:42:21.966Z,3.79
2022-08-29T10:44:54.621Z,4.37
2022-08-29T10:47:35.158Z,5.08
2022-08-29T10:50:45.569Z,5.42
2022-08-29T10:53:22.709Z,4.29
2022-08-29T10:56:15.951Z,4.28
2022-08-29T10:58:56.374Z,4.00
2022-08-29T11:01:47.386Z,6.36
2022-08-29T11:04:27.910Z,6.38
2022-08-29T11:07:04.566Z,8.72
2022-08-29T11:09:38.843Z,7.26
2022-08-29T11:12:16.025Z,6.54
2022-08-29T11:14:53.901Z,6.60
2022-08-29T11:17:23.194Z,6.36
2022-08-29T11:20:09.568Z,10.06
2022-08-29T11:22:50.883Z,10.31
2022-08-29T11:25:20.225Z,9.69
2022-08-29T11:27:53.572Z,9.87
2022-08-29T11:30:24.614Z,8.35
2022-08-29T11:33:42.650Z,8.94
2022-08-29T11:36:27.789Z,9.32
2022-08-29T11:39:21.141Z,10.70
2022-08-29T11:41:49.861Z,11.49
2022-08-29T11:44:23.019Z,12.28
2022-08-29T11:46:56.080Z,14.11
2022-08-29T11:49:44.448Z,14.33
2022-08-29T11:52:11.155Z,14.74
2022-08-29T11:54:39.065Z,17.21
2022-08-29T11:57:05.563Z,18.05
2022-08-29T11:59:56.559Z,15.01
2022-08-29T12:02:32.125Z,12.63
2022-08-29T12:05:09.355Z,11.63
2022-08-29T12:07:49.301Z,10.27
2022-08-29T12:10:23.491Z,10.14
2022-08-29T12:12:56.619Z,8.79
2022-08-29T12:15:32.516Z,10.61
2022-08-29T12:18:03.378Z,13.64
2022-08-29T12:20:30.434Z,15.67
2022-08-29T12:23:05.471Z,18.17
2022-08-29T12:25:44.940Z,20.60
2022-08-29T12:28:32.788Z,21.83
2022-08-29T12:31:01.032Z,22.46
2022-08-29T12:33:46.578Z,24.43
2022-08-29T12:36:53.014Z,27.65
2022-08-29T12:39:47.855Z,28.72
2022-08-29T12:42:46.065Z,28.13
2022-08-29T12:45:17.854Z,29.11
2022-08-29T12:47:50.998Z,27.91
2022-08-29T12:50:36.643Z,27.93
2022-08-29T12:53:05.876Z,27.67
2022-08-29T12:55:44.768Z,26.29
2022-08-29T12:58:13.206Z,27.03
2022-08-29T13:00:41.923Z,27.24
2022-08-29T13:03:15.465Z,27.57
2022-08-29T13:05:43.281Z,28.80
2022-08-29T13:08:28.977Z,27.21
2022-08-29T13:10:59.351Z,25.75
2022-08-29T13:13:26.683Z,25.75
2022-08-29T13:15:55.522Z,26.54
2022-08-29T13:18:22.972Z,26.08
2022-08-29T13:21:23.303Z,26.31
2022-08-29T13:24:02.878Z,25.61
2022-08-29T13:26:34.129Z,26.27
2022-08-29T13:29:03.869Z,26.76
2022-08-29T13:31:37.830Z,28.45
2022-08-29T13:34:07.471Z,27.46
2022-08-29T13:36:39.127Z,27.81
2022-08-29T13:39:18.015Z,28.14
2022-08-29T13:41:47.472Z,26.77
2022-08-29T13:44:19.991Z,26.45
2022-08-29T13:46:47.762Z,26.43
2022-08-29T13:49:27.546Z,25.66
2022-08-29T13:51:54.360Z,25.53
2022-08-29T13:54:21.765Z,26.23
2022-08-29T13:56:50.126Z,26.94
2022-08-29T13:59:19.656Z,25.67
2022-08-29T14:04:41.666Z,27.01
2022-08-29T14:07:09.884Z,26.23
2022-08-29T14:09:40.217Z,25.13
2022-08-29T14:12:07.580Z,24.45
2022-08-29T14:14:34.222Z,25.61
2022-08-29T14:17:01.030Z,26.40
2022-08-29T14:19:28.725Z,26.41
2022-08-29T14:21:55.985Z,27.04
2022-08-29T14:24:22.911Z,27.00
2022-08-29T14:27:01.598Z,27.60
2022-08-29T14:29:33.251Z,28.03
2022-08-29T14:32:02.848Z,27.81
2022-08-29T14:34:32.711Z,27.79
2022-08-29T14:37:00.894Z,26.33
2022-08-29T14:39:27.668Z,25.84
2022-08-29T14:41:54.668Z,26.27
2022-08-29T14:44:22.139Z,25.83
2022-08-29T14:46:49.255Z,26.49
2022-08-29T14:49:16.061Z,25.91
2022-08-29T14:51:44.193Z,26.01
2022-08-29T14:54:11.926Z,26.08
2022-08-29T14:56:54.498Z,26.66
2022-08-29T14:59:22.837Z,26.95
2022-08-29T15:01:54.152Z,26.84
2022-08-29T15:04:36.684Z,26.29
2022-08-29T15:07:09.343Z,27.10
2022-08-29T15:09:37.963Z,27.06
2022-08-29T15:12:05.377Z,28.27
2022-08-29T15:14:32.049Z,27.66
2022-08-29T15:16:58.607Z,27.98
2022-08-29T15:19:58.136Z,27.25
2022-08-29T15:22:13.005Z,27.64
2022-08-29T15:24:39.957Z,26.77
2022-08-29T15:27:07.288Z,27.67
2022-08-29T15:29:35.197Z,26.82
2022-08-29T15:32:01.765Z,26.13
2022-08-29T15:34:29.080Z,27.10
2022-08-29T15:36:56.514Z,26.17
2022-08-29T15:39:25.481Z,26.30
2022-08-29T15:41:52.054Z,27.06
2022-08-29T15:44:18.690Z,28.10
2022-08-29T15:46:50.269Z,27.50
2022-08-29T15:49:18.121Z,27.53
2022-08-29T15:51:44.804Z,28.06
2022-08-29T15:54:12.280Z,26.82
2022-08-29T15:56:39.084Z,26.83
2022-08-29T15:59:07.365Z,27.20
2022-08-29T16:01:41.182Z,27.22
2022-08-29T16:04:11.114Z,27.28
2022-08-29T16:06:38.444Z,26.60
2022-08-29T16:09:11.035Z,25.86
2022-08-29T16:11:46.993Z,25.50
2022-08-29T16:17:03.131Z,25.79
2022-08-29T16:19:29.939Z,25.55
2022-08-29T16:22:00.094Z,25.35
2022-08-29T16:24:28.881Z,25.94
2022-08-29T16:26:55.806Z,25.49
2022-08-29T16:29:26.821Z,25.67
2022-08-29T16:31:57.752Z,26.60
2022-08-29T16:34:29.049Z,26.10
2022-08-29T16:36:59.278Z,26.63
2022-08-29T16:39:30.048Z,25.89
2022-08-29T16:41:56.650Z,26.20
2022-08-29T16:44:23.780Z,26.74
2022-08-29T16:46:50.418Z,27.96
2022-08-29T16:49:17.267Z,27.77
2022-08-29T16:51:43.924Z,28.23
2022-08-29T16:54:12.029Z,28.65
2022-08-29T16:56:39.769Z,28.70
2022-08-29T16:59:06.739Z,28.52
2022-08-29T17:01:37.854Z,28.78
2022-08-29T17:04:08.434Z,28.77
2022-08-29T17:06:35.263Z,29.20
2022-08-29T17:09:06.453Z,28.95
2022-08-29T17:11:36.164Z,29.44
2022-08-29T17:14:04.097Z,29.95
2022-08-29T17:16:31.207Z,29.68
2022-08-29T17:18:57.873Z,29.94
2022-08-29T17:21:24.472Z,29.56
2022-08-29T17:23:50.991Z,29.65
2022-08-29T17:26:18.510Z,30.01
2022-08-29T17:28:46.305Z,30.12
2022-08-29T17:31:13.794Z,30.12
2022-08-29T17:33:41.106Z,30.39
2022-08-29T17:36:08.673Z,30.04
2022-08-29T17:38:35.660Z,31.14
2022-08-29T17:41:05.218Z,30.84
2022-08-29T17:43:42.977Z,30.86
2022-08-29T17:46:09.709Z,31.01
2022-08-29T17:48:36.937Z,30.98
2022-08-29T17:51:03.739Z,30.92
2022-08-29T17:53:32.311Z,30.99
2022-08-29T17:55:59.938Z,30.75
2022-08-29T17:58:26.459Z,31.66
2022-08-29T18:00:54.549Z,32.23
2022-08-29T18:03:21.321Z,32.35
2022-08-29T18:05:48.068Z,32.50
2022-08-29T18:08:14.722Z,32.27
2022-08-29T18:10:41.334Z,32.70
2022-08-29T18:13:07.916Z,32.96
2022-08-29T18:15:35.547Z,32.77
2022-08-29T18:18:02.511Z,33.45
2022-08-29T18:20:29.622Z,33.88
2022-08-29T18:22:58.346Z,34.25
2022-08-29T18:25:25.021Z,35.38
2022-08-29T18:27:51.598Z,34.81
2022-08-29T18:30:18.648Z,35.15
2022-08-29T18:32:45.257Z,35.46
2022-08-29T18:35:12.033Z,35.38
2022-08-29T18:37:41.641Z,35.47
2022-08-29T18:40:09.675Z,35.54
2022-08-29T18:42:40.874Z,35.64
2022-08-29T18:45:09.142Z,35.36
2022-08-29T18:47:37.015Z,36.10
2022-08-29T18:50:23.172Z,36.27
2022-08-29T18:52:51.956Z,36.38
2022-08-29T18:55:18.584Z,36.10
2022-08-29T18:57:47.121Z,36.69
2022-08-29T19:00:14.595Z,37.05
2022-08-29T19:02:41.405Z,37.07
2022-08-29T19:05:08.580Z,36.69
2022-08-29T19:07:35.135Z,36.98
2022-08-29T19:10:01.900Z,36.64
2022-08-29T19:12:28.539Z,36.68
2022-08-29T19:14:55.958Z,37.69
2022-08-29T19:17:22.616Z,37.30
2022-08-29T19:20:10.456Z,37.58
2022-08-29T19:22:38.115Z,37.31
2022-08-29T19:25:06.912Z,37.54
2022-08-29T19:27:43.274Z,37.22
2022-08-29T19:30:12.471Z,37.31
2022-08-29T19:32:39.299Z,37.95
2022-08-29T19:35:09.341Z,37.30
2022-08-29T19:37:36.232Z,37.14
2022-08-29T19:40:04.861Z,37.21
2022-08-29T19:42:31.558Z,37.79
2022-08-29T19:44:58.159Z,38.29
2022-08-29T19:47:25.183Z,38.42
2022-08-29T19:49:52.362Z,39.70
2022-08-29T19:52:18.946Z,39.86
2022-08-29T19:54:46.418Z,39.51
2022-08-29T19:57:14.708Z,39.05
2022-08-29T19:59:42.271Z,39.15
2022-08-29T20:02:11.203Z,39.46
2022-08-29T20:04:38.305Z,39.20
2022-08-29T20:07:05.385Z,39.06
2022-08-29T20:09:31.968Z,39.52
2022-08-29T20:11:59.043Z,38.82
2022-08-29T20:14:25.606Z,38.77
2022-08-29T20:16:52.599Z,38.87
2022-08-29T20:19:21.274Z,39.05
2022-08-29T20:21:48.985Z,38.67
2022-08-29T20:24:17.483Z,38.42
2022-08-29T20:26:46.660Z,38.92
2022-08-29T20:29:16.471Z,40.31
2022-08-29T20:31:44.342Z,40.07
2022-08-29T20:34:11.014Z,40.21
2022-08-29T20:36:55.945Z,40.42
2022-08-29T20:39:22.521Z,40.41
2022-08-29T20:41:55.476Z,40.44
2022-08-29T20:44:32.982Z,40.64
2022-08-29T20:47:00.509Z,40.73
2022-08-29T20:49:27.125Z,41.03
2022-08-29T20:51:53.781Z,41.38
2022-08-29T20:54:23.047Z,41.63
2022-08-29T20:56:50.177Z,41.71
2022-08-29T20:59:17.194Z,42.64
2022-08-29T21:01:44.479Z,41.72
2022-08-29T21:04:30.660Z,42.10
2022-08-29T21:07:09.119Z,41.94
2022-08-29T21:09:36.823Z,42.17
2022-08-29T21:12:03.635Z,41.77
2022-08-29T21:14:30.193Z,41.76
2022-08-29T21:16:57.299Z,41.83
2022-08-29T21:19:26.344Z,41.89
2022-08-29T21:21:53.867Z,41.79
2022-08-29T21:24:21.036Z,41.50
2022-08-29T21:26:48.006Z,42.41
2022-08-29T21:29:15.268Z,43.18
2022-08-29T21:31:42.161Z,43.41
2022-08-29T21:34:10.525Z,42.90
2022-08-29T21:36:38.159Z,42.86
2022-08-29T21:39:08.295Z,42.58
2022-08-29T21:41:39.780Z,41.93
2022-08-29T21:44:06.690Z,42.12
2022-08-29T21:46:35.317Z,41.69
2022-08-29T21:49:04.726Z,41.71
2022-08-29T21:51:33.286Z,41.79
2022-08-29T21:54:00.144Z,41.17
2022-08-29T21:56:28.758Z,40.73
2022-08-29T21:58:56.790Z,41.49
2022-08-29T22:01:27.165Z,41.26
2022-08-29T22:03:54.509Z,41.43
2022-08-29T22:06:21.649Z,41.72
2022-08-29T22:08:48.607Z,42.63
2022-08-29T22:11:25.062Z,41.69
2022-08-29T22:14:06.479Z,41.53
2022-08-29T22:16:33.388Z,41.96
2022-08-29T22:19:01.735Z,42.17
2022-08-29T22:21:33.024Z,42.30
2022-08-29T22:23:59.903Z,42.11
2022-08-29T22:26:26.735Z,41.76
2022-08-29T22:28:53.381Z,41.94
2022-08-29T22:31:20.107Z,42.17
2022-08-29T22:33:47.274Z,42.87
2022-08-29T22:36:14.990Z,42.67
2022-08-29T22:38:43.362Z,43.05
2022-08-29T22:41:15.190Z,42.62
2022-08-29T22:43:45.088Z,42.87
2022-08-29T22:46:17.065Z,43.20
2022-08-29T22:48:44.470Z,42.99
2022-08-29T22:51:31.357Z,43.28
2022-08-29T22:54:16.723Z,43.65
2022-08-29T22:56:44.992Z,43.36
2022-08-29T22:59:12.885Z,43.80
2022-08-29T23:01:41.681Z,43.72
2022-08-29T23:04:08.767Z,43.85
2022-08-29T23:06:35.957Z,43.81
2022-08-29T23:09:02.723Z,44.02
2022-08-29T23:11:29.263Z,43.84
2022-08-29T23:13:56.111Z,43.85
2022-08-29T23:16:23.787Z,43.83
2022-08-29T23:18:51.045Z,44.03
2022-08-29T23:21:18.274Z,43.77
2022-08-29T23:23:45.401Z,43.90
2022-08-29T23:26:12.201Z,43.69
2022-08-29T23:28:38.824Z,44.02
2022-08-29T23:31:05.474Z,43.38
2022-08-29T23:33:32.238Z,43.24
2022-08-29T23:35:58.804Z,43.50
2022-08-29T23:38:25.463Z,43.28
2022-08-29T23:40:52.475Z,43.34
2022-08-29T23:43:21.028Z,43.46
2022-08-29T23:45:49.842Z,43.22
2022-08-29T23:48:16.820Z,43.02
2022-08-29T23:50:45.163Z,43.18
2022-08-29T23:53:15.910Z,43.22
2022-08-29T23:55:42.794Z,43.20
2022-08-29T23:58:09.649Z,43.51
